Time;durP1;ratioP1;P1;durP2;ratioP2;P2;SDS_P1;SDS_P2;PMS_P1;PMS_P2;Temp;Humidity;BMP_temperature;BMP_pressure;BME280_temperature;BME280_humidity;BME280_pressure;Samples;Min_cycle;Max_cycle;Signal;HPM_P1;HPM_P2
2022/06/23 00:01:00;;;;;;;;;;;27.40;73.80;;;;;;6340460;22;19944;-80
2022/06/23 00:03:27;;;;;;;;;;;27.50;74.20;;;;;;6340231;22;20366;-79
2022/06/23 00:05:57;;;;;;;;;;;27.40;74.10;;;;;;6340025;22;19899;-79
2022/06/23 00:08:23;;;;;;;;;;;27.40;74.40;;;;;;6339789;22;19898;-81
2022/06/23 00:10:53;;;;;;;;;;;27.40;74.30;;;;;;6340243;22;19899;-80
2022/06/23 00:13:22;;;;;;;;;;;27.40;74.40;;;;;;6340284;22;19898;-80
2022/06/23 00:15:49;;;;;;;;;;;27.40;74.70;;;;;;6340213;22;20229;-80
2022/06/23 00:18:16;;;;;;;;;;;27.40;74.70;;;;;;6339914;22;19993;-83
2022/06/23 00:21:05;;;;;;;;;;;27.30;75.10;;;;;;6340068;22;19898;-81
2022/06/23 00:23:31;;;;;;;;;;;27.30;75.10;;;;;;6326848;22;20031;-81
2022/06/23 00:26:03;;;;;;;;;;;27.30;75.10;;;;;;6339565;22;19905;-81
2022/06/23 00:28:35;;;;;;;;;;;27.30;75.30;;;;;;6339848;22;19976;-81
2022/06/23 00:31:02;;;;;;;;;;;27.30;75.40;;;;;;6312003;22;20260;-81
2022/06/23 00:33:30;;;;;;;;;;;27.20;75.90;;;;;;6339267;22;20353;-82
2022/06/23 00:35:57;;;;;;;;;;;27.10;76.00;;;;;;6339489;22;19902;-81
2022/06/23 00:38:26;;;;;;;;;;;27.10;75.60;;;;;;6339905;22;19903;-81
2022/06/23 00:40:52;;;;;;;;;;;27.10;75.80;;;;;;6339800;22;19906;-81
2022/06/23 00:43:18;;;;;;;;;;;27.10;75.70;;;;;;6340058;22;20309;-82
2022/06/23 00:45:46;;;;;;;;;;;27.10;75.90;;;;;;6340336;22;20362;-82
2022/06/23 00:48:11;;;;;;;;;;;27.10;75.70;;;;;;6312796;22;20368;-82
2022/06/23 00:50:56;;;;;;;;;;;27.10;76.40;;;;;;6340442;22;19899;-82
2022/06/23 00:53:28;;;;;;;;;;;27.00;76.60;;;;;;6340181;22;19905;-81
2022/06/23 00:55:53;;;;;;;;;;;27.00;76.40;;;;;;6339193;22;19905;-82
2022/06/23 00:58:18;;;;;;;;;;;27.00;76.30;;;;;;6339837;22;19934;-83
2022/06/23 01:00:45;;;;;;;;;;;27.00;76.10;;;;;;6339608;22;20376;-81
2022/06/23 01:03:10;;;;;;;;;;;27.10;76.30;;;;;;6311804;22;20316;-83
2022/06/23 01:05:41;;;;;;;;;;;27.00;76.80;;;;;;6339780;22;19903;-83
2022/06/23 01:08:28;;;;;;;;;;;27.00;76.40;;;;;;6339621;22;19903;-80
2022/06/23 01:11:11;;;;;;;;;;;26.90;76.80;;;;;;6312011;22;20316;-79
2022/06/23 01:13:39;;;;;;;;;;;26.90;76.50;;;;;;6339537;22;19922;-79
2022/06/23 01:16:04;;;;;;;;;;;27.00;76.50;;;;;;6338598;22;19902;-78
2022/06/23 01:18:34;;;;;;;;;;;26.90;77.10;;;;;;6311780;22;19902;-78
2022/06/23 01:21:06;;;;;;;;;;;26.90;76.80;;;;;;6338614;22;19899;-79
2022/06/23 01:23:41;;;;;;;;;;;26.90;77.10;;;;;;6311522;22;19905;-79
2022/06/23 01:26:19;;;;;;;;;;;26.80;77.50;;;;;;6311646;22;19899;-78
2022/06/23 01:28:45;;;;;;;;;;;26.70;77.30;;;;;;6339745;22;19899;-79
2022/06/23 01:31:13;;;;;;;;;;;26.60;77.70;;;;;;6338897;22;19978;-79
2022/06/23 01:33:39;;;;;;;;;;;26.60;78.10;;;;;;6338619;22;20297;-79
2022/06/23 01:36:13;;;;;;;;;;;26.60;77.70;;;;;;6338750;22;19906;-80
2022/06/23 01:38:48;;;;;;;;;;;26.60;77.70;;;;;;6339057;22;19903;-79
2022/06/23 01:41:33;;;;;;;;;;;26.60;78.00;;;;;;6339055;22;19914;-78
2022/06/23 01:44:06;;;;;;;;;;;26.60;77.50;;;;;;6290873;22;19943;-78
2022/06/23 01:46:35;;;;;;;;;;;26.60;77.50;;;;;;6339487;22;19906;-79
2022/06/23 01:49:06;;;;;;;;;;;26.50;78.10;;;;;;6339062;22;19899;-78
2022/06/23 01:51:37;;;;;;;;;;;26.50;77.80;;;;;;6338934;22;19899;-80
2022/06/23 01:54:26;;;;;;;;;;;26.50;77.80;;;;;;6339805;22;19899;-80
2022/06/23 01:56:58;;;;;;;;;;;26.60;77.70;;;;;;6298922;22;19973;-79
2022/06/23 01:59:58;;;;;;;;;;;26.60;77.80;;;;;;6339196;22;20359;-79
2022/06/23 02:02:43;;;;;;;;;;;26.60;77.60;;;;;;6243058;23;20254;-79
2022/06/23 02:05:27;;;;;;;;;;;26.60;77.80;;;;;;6331960;22;20315;-78
2022/06/23 02:08:11;;;;;;;;;;;26.50;78.00;;;;;;6312053;22;19902;-81
2022/06/23 02:10:52;;;;;;;;;;;26.50;77.60;;;;;;6339733;22;19899;-79
2022/06/23 02:13:21;;;;;;;;;;;26.50;77.90;;;;;;6339034;22;19903;-80
2022/06/23 02:15:54;;;;;;;;;;;26.50;77.80;;;;;;6339240;22;20293;-79
2022/06/23 02:18:25;;;;;;;;;;;26.50;77.60;;;;;;6339628;22;19902;-82
2022/06/23 02:20:56;;;;;;;;;;;26.50;77.70;;;;;;6339969;22;19899;-81
2022/06/23 02:23:33;;;;;;;;;;;26.50;78.00;;;;;;6339453;22;20324;-83
2022/06/23 02:26:08;;;;;;;;;;;26.50;77.70;;;;;;6339544;22;19925;-82
2022/06/23 02:28:39;;;;;;;;;;;26.50;77.70;;;;;;6339693;22;19899;-81
2022/06/23 02:31:27;;;;;;;;;;;26.40;78.00;;;;;;6339460;22;19977;-81
2022/06/23 02:33:58;;;;;;;;;;;26.20;78.30;;;;;;6326506;22;19899;-81
2022/06/23 02:36:35;;;;;;;;;;;26.10;78.80;;;;;;6339372;22;20339;-81
2022/06/23 02:39:03;;;;;;;;;;;26.00;79.40;;;;;;6339014;22;19941;-80
2022/06/23 02:41:28;;;;;;;;;;;25.90;80.00;;;;;;6339051;22;20009;-81
2022/06/23 02:44:05;;;;;;;;;;;25.60;80.80;;;;;;6311115;22;19902;-80
2022/06/23 02:46:34;;;;;;;;;;;25.60;81.00;;;;;;6338919;22;19898;-80
2022/06/23 02:49:14;;;;;;;;;;;25.70;80.70;;;;;;6311327;22;19898;-79
2022/06/23 02:51:40;;;;;;;;;;;25.70;81.00;;;;;;6338567;22;19902;-80
2022/06/23 02:54:23;;;;;;;;;;;25.60;81.50;;;;;;6339617;22;20326;-81
2022/06/23 02:57:01;;;;;;;;;;;25.50;81.90;;;;;;6340973;22;19899;-79
2022/06/23 02:59:29;;;;;;;;;;;25.30;82.20;;;;;;6340672;22;19942;-79
2022/06/23 03:02:04;;;;;;;;;;;25.30;82.50;;;;;;6312928;22;20190;-78
2022/06/23 03:04:40;;;;;;;;;;;25.30;82.10;;;;;;6341059;22;19921;-78
2022/06/23 03:07:08;;;;;;;;;;;25.40;82.20;;;;;;6341219;22;19903;-79
2022/06/23 03:09:37;;;;;;;;;;;25.40;82.10;;;;;;6340799;22;20241;-79
2022/06/23 03:12:07;;;;;;;;;;;25.40;81.90;;;;;;6341014;22;19943;-79
2022/06/23 03:14:42;;;;;;;;;;;25.50;81.60;;;;;;6340781;22;19906;-79
2022/06/23 03:17:20;;;;;;;;;;;25.60;81.00;;;;;;6312991;22;19906;-80
2022/06/23 03:19:57;;;;;;;;;;;25.70;80.70;;;;;;6340344;22;19903;-79
2022/06/23 03:22:38;;;;;;;;;;;25.70;81.60;;;;;;6340404;22;20380;-79
2022/06/23 03:25:06;;;;;;;;;;;25.70;81.00;;;;;;6340421;22;19908;-79
2022/06/23 03:27:34;;;;;;;;;;;25.70;80.80;;;;;;6340791;22;20374;-80
2022/06/23 03:30:06;;;;;;;;;;;25.70;81.00;;;;;;6340904;22;20297;-82
2022/06/23 03:32:35;;;;;;;;;;;25.60;81.30;;;;;;6341293;22;20281;-81
2022/06/23 03:35:03;;;;;;;;;;;25.50;81.90;;;;;;6341159;22;19898;-83
2022/06/23 03:37:47;;;;;;;;;;;25.40;81.90;;;;;;6341590;22;19898;-83
2022/06/23 03:43:06;;;;;;;;;;;25.50;81.10;;;;;;6341333;22;20328;-82
2022/06/23 03:45:35;;;;;;;;;;;25.50;81.40;;;;;;6340853;22;20361;-81
2022/06/23 03:48:01;;;;;;;;;;;25.40;81.70;;;;;;6340457;22;19914;-80
2022/06/23 03:50:36;;;;;;;;;;;25.40;81.80;;;;;;6340464;22;19898;-79
2022/06/23 03:53:07;;;;;;;;;;;25.30;81.90;;;;;;6340597;22;19902;-79
2022/06/23 03:55:38;;;;;;;;;;;25.20;82.20;;;;;;6340180;22;19899;-79
2022/06/23 03:58:13;;;;;;;;;;;25.10;82.50;;;;;;6340051;22;19902;-79
2022/06/23 04:00:41;;;;;;;;;;;25.00;83.00;;;;;;6340541;22;20214;-80
2022/06/23 04:03:17;;;;;;;;;;;24.80;83.90;;;;;;6340364;22;20213;-80
2022/06/23 04:05:54;;;;;;;;;;;24.60;84.70;;;;;;6340398;22;19899;-80
2022/06/23 04:08:20;;;;;;;;;;;24.40;86.10;;;;;;6340906;22;19930;-81
2022/06/23 04:10:46;;;;;;;;;;;24.40;85.80;;;;;;6340474;22;19898;-80
2022/06/23 04:13:23;;;;;;;;;;;24.40;85.70;;;;;;6340264;22;19909;-80
2022/06/23 04:15:52;;;;;;;;;;;24.30;86.50;;;;;;6312530;22;20266;-80
2022/06/23 04:18:23;;;;;;;;;;;24.50;85.60;;;;;;6312320;22;19908;-81
2022/06/23 04:20:53;;;;;;;;;;;24.70;84.90;;;;;;6340022;22;19913;-81
2022/06/23 04:23:25;;;;;;;;;;;24.90;84.10;;;;;;6340420;22;19905;-81
2022/06/23 04:25:56;;;;;;;;;;;25.00;83.60;;;;;;6312742;22;19906;-81
2022/06/23 04:28:40;;;;;;;;;;;25.20;83.00;;;;;;6313057;22;20233;-81
2022/06/23 04:31:07;;;;;;;;;;;25.30;82.90;;;;;;6340191;22;19898;-82
2022/06/23 04:33:35;;;;;;;;;;;25.40;82.40;;;;;;6312661;22;20317;-81
2022/06/23 04:36:02;;;;;;;;;;;25.50;82.30;;;;;;6340564;22;19898;-82
2022/06/23 04:38:43;;;;;;;;;;;25.60;82.30;;;;;;6340328;22;19963;-82
2022/06/23 04:41:14;;;;;;;;;;;25.60;82.00;;;;;;6312538;22;19918;-82
2022/06/23 04:43:42;;;;;;;;;;;25.60;81.90;;;;;;6340419;22;19973;-81
2022/06/23 04:46:16;;;;;;;;;;;25.70;81.90;;;;;;6339985;22;19909;-81
2022/06/23 04:48:48;;;;;;;;;;;25.80;81.90;;;;;;6340045;22;19899;-80
2022/06/23 04:51:16;;;;;;;;;;;25.80;82.50;;;;;;6340129;22;19905;-81
2022/06/23 04:53:45;;;;;;;;;;;25.80;82.00;;;;;;6311756;22;19899;-81
2022/06/23 04:56:17;;;;;;;;;;;25.80;82.40;;;;;;6339361;22;19903;-76
2022/06/23 04:58:47;;;;;;;;;;;25.80;82.30;;;;;;6339340;22;19910;-76
2022/06/23 05:01:15;;;;;;;;;;;25.80;82.10;;;;;;6338747;22;19948;-77
2022/06/23 05:03:44;;;;;;;;;;;25.80;82.60;;;;;;6338971;22;19898;-76
2022/06/23 05:06:25;;;;;;;;;;;25.80;82.10;;;;;;6311682;22;19898;-76
2022/06/23 05:08:51;;;;;;;;;;;25.90;82.30;;;;;;6338758;22;19903;-76
2022/06/23 05:11:27;;;;;;;;;;;25.90;82.20;;;;;;6339249;22;20265;-76
2022/06/23 05:14:01;;;;;;;;;;;25.80;82.20;;;;;;6339157;22;19898;-76
2022/06/23 05:16:34;;;;;;;;;;;25.80;82.30;;;;;;6338827;22;19944;-75
2022/06/23 05:19:05;;;;;;;;;;;25.50;83.00;;;;;;6339094;22;19902;-75
2022/06/23 05:21:36;;;;;;;;;;;25.30;83.80;;;;;;6339148;22;19902;-76
2022/06/23 05:24:04;;;;;;;;;;;25.20;84.30;;;;;;6339421;22;19899;-76
2022/06/23 05:26:38;;;;;;;;;;;25.20;84.40;;;;;;6339080;22;19926;-76
2022/06/23 05:29:17;;;;;;;;;;;25.10;84.90;;;;;;6337289;22;20369;-75
2022/06/23 05:31:45;;;;;;;;;;;25.20;84.90;;;;;;6338747;22;19931;-75
2022/06/23 05:34:16;;;;;;;;;;;25.30;84.50;;;;;;6339499;22;19899;-79
2022/06/23 05:37:02;;;;;;;;;;;25.40;84.20;;;;;;6339259;22;19981;-78
2022/06/23 05:39:32;;;;;;;;;;;25.40;84.50;;;;;;6337612;22;19907;-78
2022/06/23 05:41:59;;;;;;;;;;;25.40;84.40;;;;;;6310119;22;20017;-77
2022/06/23 05:44:30;;;;;;;;;;;25.50;84.20;;;;;;6335543;22;19910;-76
2022/06/23 05:46:58;;;;;;;;;;;25.60;84.00;;;;;;6335058;22;19925;-76
2022/06/23 05:49:26;;;;;;;;;;;25.70;84.30;;;;;;6338485;22;19898;-77
2022/06/23 05:51:57;;;;;;;;;;;25.70;84.80;;;;;;6339376;22;19981;-77
2022/06/23 05:54:29;;;;;;;;;;;25.60;85.20;;;;;;6338617;22;19983;-76
2022/06/23 05:57:09;;;;;;;;;;;25.60;85.30;;;;;;6338669;22;19898;-76
2022/06/23 05:59:53;;;;;;;;;;;25.80;84.90;;;;;;6338603;22;19999;-76
2022/06/23 06:02:27;;;;;;;;;;;25.90;85.80;;;;;;6338546;22;19905;-77
2022/06/23 06:04:54;;;;;;;;;;;25.90;86.30;;;;;;6338867;22;20008;-77
2022/06/23 06:07:22;;;;;;;;;;;25.80;87.50;;;;;;6338823;22;19925;-77
2022/06/23 06:09:48;;;;;;;;;;;25.60;88.40;;;;;;6339081;22;20194;-76
2022/06/23 06:12:17;;;;;;;;;;;25.60;88.60;;;;;;6338531;22;19906;-77
2022/06/23 06:14:58;;;;;;;;;;;25.50;89.00;;;;;;6339438;22;19899;-77
2022/06/23 06:17:25;;;;;;;;;;;25.60;88.90;;;;;;6339108;22;20011;-77
2022/06/23 06:19:51;;;;;;;;;;;25.70;88.70;;;;;;6338547;22;20232;-77
2022/06/23 06:22:26;;;;;;;;;;;25.60;89.80;;;;;;6338863;22;20313;-78
2022/06/23 06:24:53;;;;;;;;;;;25.50;90.00;;;;;;6338153;22;19969;-78
2022/06/23 06:27:21;;;;;;;;;;;25.60;89.60;;;;;;6338577;22;19905;-78
2022/06/23 06:29:48;;;;;;;;;;;25.60;89.10;;;;;;6340758;22;20312;-78
2022/06/23 06:32:19;;;;;;;;;;;25.80;88.80;;;;;;6327201;22;20224;-75
2022/06/23 06:34:50;;;;;;;;;;;25.80;89.40;;;;;;6340435;22;19899;-74
2022/06/23 06:37:16;;;;;;;;;;;25.90;89.30;;;;;;6313106;22;19898;-74
2022/06/23 06:39:46;;;;;;;;;;;26.10;89.00;;;;;;6340721;22;20251;-74
2022/06/23 06:42:14;;;;;;;;;;;26.20;89.20;;;;;;6340558;22;20285;-74
2022/06/23 06:44:41;;;;;;;;;;;26.20;89.10;;;;;;6340761;22;19898;-75
2022/06/23 06:47:18;;;;;;;;;;;26.30;88.70;;;;;;6340283;22;19899;-74
2022/06/23 06:49:44;;;;;;;;;;;26.40;89.00;;;;;;6340502;22;19910;-74
2022/06/23 06:52:11;;;;;;;;;;;26.30;89.30;;;;;;6340474;22;19898;-74
2022/06/23 06:54:46;;;;;;;;;;;26.30;89.20;;;;;;6340304;22;19899;-74
2022/06/23 06:57:31;;;;;;;;;;;26.40;89.20;;;;;;6339306;22;19948;-74
2022/06/23 07:00:26;;;;;;;;;;;26.30;89.10;;;;;;6339609;22;19906;-74
2022/06/23 07:03:02;;;;;;;;;;;26.20;89.60;;;;;;6319175;22;19899;-75
2022/06/23 07:05:30;;;;;;;;;;;26.20;89.80;;;;;;6339602;22;19988;-76
2022/06/23 07:08:05;;;;;;;;;;;26.30;89.70;;;;;;6340044;22;20348;-75
2022/06/23 07:10:31;;;;;;;;;;;26.50;89.20;;;;;;6340064;22;19905;-76
2022/06/23 07:13:00;;;;;;;;;;;26.60;88.50;;;;;;6339937;22;19903;-75
2022/06/23 07:15:29;;;;;;;;;;;26.70;88.10;;;;;;6339314;22;19988;-76
2022/06/23 07:17:58;;;;;;;;;;;26.60;88.00;;;;;;6339529;22;20216;-76
2022/06/23 07:20:46;;;;;;;;;;;26.60;88.20;;;;;;6339625;22;19903;-75
2022/06/23 07:23:28;;;;;;;;;;;26.60;88.10;;;;;;6298951;22;19905;-74
2022/06/23 07:25:57;;;;;;;;;;;26.70;88.30;;;;;;6339435;22;19899;-74
2022/06/23 07:28:30;;;;;;;;;;;26.70;88.10;;;;;;6340023;22;19951;-76
2022/06/23 07:31:00;;;;;;;;;;;26.60;87.80;;;;;;6339923;22;20330;-76
2022/06/23 07:33:34;;;;;;;;;;;26.70;88.10;;;;;;6340215;22;19899;-76
2022/06/23 07:36:08;;;;;;;;;;;26.70;86.90;;;;;;6339486;22;20297;-76
2022/06/23 07:38:43;;;;;;;;;;;26.60;87.10;;;;;;6312366;22;19902;-76
2022/06/23 07:41:13;;;;;;;;;;;26.80;87.40;;;;;;6311638;22;20289;-75
2022/06/23 07:43:54;;;;;;;;;;;26.90;87.40;;;;;;6312271;22;19905;-76
2022/06/23 07:46:20;;;;;;;;;;;27.10;86.70;;;;;;6311514;22;19902;-76
2022/06/23 07:48:46;;;;;;;;;;;27.20;86.30;;;;;;6339651;22;19910;-76
2022/06/23 07:51:12;;;;;;;;;;;27.30;85.60;;;;;;6339425;22;19905;-76
2022/06/23 07:53:43;;;;;;;;;;;27.50;84.70;;;;;;6339144;22;19899;-76
2022/06/23 07:56:11;;;;;;;;;;;27.40;84.70;;;;;;6338996;22;19934;-76
2022/06/23 07:58:42;;;;;;;;;;;27.50;84.10;;;;;;6339320;22;19902;-77
2022/06/23 08:01:26;;;;;;;;;;;27.40;84.40;;;;;;6339777;22;20258;-75
2022/06/23 08:03:56;;;;;;;;;;;27.50;84.50;;;;;;6339587;22;20321;-75
2022/06/23 08:06:24;;;;;;;;;;;27.60;84.30;;;;;;6339468;22;19905;-76
2022/06/23 08:08:54;;;;;;;;;;;27.50;82.70;;;;;;6339270;22;19977;-76
2022/06/23 08:14:07;;;;;;;;;;;27.60;82.90;;;;;;6339418;22;19906;-76
2022/06/23 08:16:51;;;;;;;;;;;27.70;82.50;;;;;;6339058;22;19949;-76
2022/06/23 08:19:35;;;;;;;;;;;27.80;82.70;;;;;;6338885;22;19912;-76
2022/06/23 08:22:15;;;;;;;;;;;28.00;82.60;;;;;;6339027;22;20186;-76
2022/06/23 08:24:42;;;;;;;;;;;28.10;80.70;;;;;;6339212;22;19898;-76
2022/06/23 08:27:10;;;;;;;;;;;28.20;81.30;;;;;;6338959;22;19902;-77
2022/06/23 08:30:08;;;;;;;;;;;28.20;80.80;;;;;;6339388;22;20317;-76
2022/06/23 08:32:37;;;;;;;;;;;28.20;81.00;;;;;;6286624;22;19937;-79
2022/06/23 08:35:08;;;;;;;;;;;28.30;80.10;;;;;;6339051;22;19899;-79
2022/06/23 08:37:46;;;;;;;;;;;28.50;80.90;;;;;;6338657;22;19898;-80
2022/06/23 08:40:18;;;;;;;;;;;28.50;80.60;;;;;;6339170;22;19934;-80
2022/06/23 08:43:07;;;;;;;;;;;28.60;79.60;;;;;;6338583;22;19977;-80
2022/06/23 08:45:49;;;;;;;;;;;28.60;79.50;;;;;;6338932;22;19906;-80
2022/06/23 08:48:22;;;;;;;;;;;28.60;79.60;;;;;;6338613;22;20613;-79
2022/06/23 08:50:56;;;;;;;;;;;28.70;79.10;;;;;;6338809;22;19898;-80
2022/06/23 08:53:37;;;;;;;;;;;28.60;77.90;;;;;;6338797;22;19898;-80
2022/06/23 08:56:08;;;;;;;;;;;28.70;78.70;;;;;;6338367;22;20345;-79
2022/06/23 08:58:37;;;;;;;;;;;28.70;78.60;;;;;;6338161;22;19910;-80
2022/06/23 09:01:08;;;;;;;;;;;28.70;78.50;;;;;;6339536;22;19995;-79
2022/06/23 09:03:47;;;;;;;;;;;28.70;77.10;;;;;;6339803;22;19983;-79
2022/06/23 09:06:16;;;;;;;;;;;28.70;77.70;;;;;;6339636;22;20313;-79
2022/06/23 09:09:00;;;;;;;;;;;28.70;76.40;;;;;;6339443;22;19951;-79
2022/06/23 09:11:35;;;;;;;;;;;28.70;77.20;;;;;;6339983;22;20226;-78
2022/06/23 09:14:19;;;;;;;;;;;28.80;76.70;;;;;;6339383;22;20233;-79
2022/06/23 09:16:51;;;;;;;;;;;28.80;76.00;;;;;;6339604;22;20066;-80
2022/06/23 09:19:17;;;;;;;;;;;28.70;76.40;;;;;;6339535;22;20234;-79
2022/06/23 09:22:01;;;;;;;;;;;28.80;77.70;;;;;;6339647;22;19906;-79
2022/06/23 09:24:33;;;;;;;;;;;28.80;77.80;;;;;;6311992;22;19898;-79
2022/06/23 09:27:05;;;;;;;;;;;28.70;77.90;;;;;;6340117;22;20035;-79
2022/06/23 09:29:45;;;;;;;;;;;28.70;78.30;;;;;;6311638;22;20032;-78
2022/06/23 09:32:12;;;;;;;;;;;28.70;77.70;;;;;;6339088;22;19973;-79
2022/06/23 09:34:55;;;;;;;;;;;28.70;78.50;;;;;;6339194;22;19982;-87
2022/06/23 09:37:21;;;;;;;;;;;28.90;78.90;;;;;;6311379;22;20301;-79
2022/06/23 09:39:59;;;;;;;;;;;29.10;79.10;;;;;;6338863;22;19903;-79
2022/06/23 09:42:53;;;;;;;;;;;29.30;78.30;;;;;;6339169;22;19914;-79
2022/06/23 09:45:18;;;;;;;;;;;29.30;75.90;;;;;;6338866;22;19898;-79
2022/06/23 09:48:04;;;;;;;;;;;29.50;76.90;;;;;;6338733;22;19981;-80
2022/06/23 09:50:48;;;;;;;;;;;29.60;76.60;;;;;;6321329;22;19898;-80
2022/06/23 09:53:33;;;;;;;;;;;29.80;76.60;;;;;;6338164;22;19899;-80
2022/06/23 09:56:17;;;;;;;;;;;30.00;75.70;;;;;;6311049;22;19898;-79
2022/06/23 09:59:09;;;;;;;;;;;30.10;75.40;;;;;;6337864;22;19951;-80
2022/06/23 10:01:49;;;;;;;;;;;30.30;73.90;;;;;;6338643;22;20020;-79
2022/06/23 10:04:25;;;;;;;;;;;30.50;74.40;;;;;;6338765;22;19911;-81
2022/06/23 10:07:13;;;;;;;;;;;30.50;70.40;;;;;;6336569;22;19903;-81
2022/06/23 10:09:51;;;;;;;;;;;30.50;72.30;;;;;;6311111;22;19898;-81
2022/06/23 10:12:28;;;;;;;;;;;30.70;72.40;;;;;;6339047;22;20297;-79
2022/06/23 10:14:54;;;;;;;;;;;30.80;72.40;;;;;;6338935;22;19904;-79
2022/06/23 10:17:29;;;;;;;;;;;30.90;70.70;;;;;;6311242;22;19974;-79
2022/06/23 10:20:13;;;;;;;;;;;30.90;68.50;;;;;;6339965;22;19921;-79
2022/06/23 10:22:44;;;;;;;;;;;30.90;70.30;;;;;;6341559;22;20202;-80
2022/06/23 10:25:19;;;;;;;;;;;31.00;70.60;;;;;;6342381;22;19905;-80
2022/06/23 10:28:13;;;;;;;;;;;31.10;71.30;;;;;;6344662;22;19902;-79
2022/06/23 10:30:42;;;;;;;;;;;31.20;70.90;;;;;;6328416;22;19898;-79
2022/06/23 10:33:22;;;;;;;;;;;31.40;70.00;;;;;;6342643;22;20297;-80
2022/06/23 10:36:05;;;;;;;;;;;31.40;69.50;;;;;;6337357;22;19951;-79
2022/06/23 10:38:31;;;;;;;;;;;31.30;69.90;;;;;;6338759;22;19902;-80
2022/06/23 10:40:56;;;;;;;;;;;31.10;70.60;;;;;;6338522;22;20229;-80
2022/06/23 10:43:37;;;;;;;;;;;31.00;71.50;;;;;;6338848;22;19899;-79
2022/06/23 10:46:32;;;;;;;;;;;30.90;71.70;;;;;;6339087;22;19899;-79
2022/06/23 10:49:04;;;;;;;;;;;30.90;71.70;;;;;;6317961;22;19898;-80
2022/06/23 10:51:36;;;;;;;;;;;30.90;71.80;;;;;;6339360;22;19905;-80
2022/06/23 10:54:08;;;;;;;;;;;30.80;72.40;;;;;;6339573;22;19899;-80
2022/06/23 10:56:46;;;;;;;;;;;30.80;72.80;;;;;;6339616;22;19899;-79
2022/06/23 10:59:23;;;;;;;;;;;30.80;72.90;;;;;;6338717;22;19928;-79
2022/06/23 11:02:04;;;;;;;;;;;30.90;73.00;;;;;;6339252;22;19899;-79
2022/06/23 11:04:32;;;;;;;;;;;31.10;73.20;;;;;;6339403;22;19959;-79
2022/06/23 11:07:04;;;;;;;;;;;31.30;73.30;;;;;;6338217;22;19921;-80
2022/06/23 11:09:36;;;;;;;;;;;31.60;72.60;;;;;;6337881;22;19898;-80
2022/06/23 11:12:07;;;;;;;;;;;31.80;71.70;;;;;;6337784;22;19898;-79
2022/06/23 11:14:57;;;;;;;;;;;31.90;70.90;;;;;;6338014;22;19898;-79
2022/06/23 11:17:42;;;;;;;;;;;32.10;70.90;;;;;;6313067;22;19902;-79
2022/06/23 11:20:10;;;;;;;;;;;32.30;69.50;;;;;;6340000;22;20235;-78
2022/06/23 11:22:44;;;;;;;;;;;32.50;70.10;;;;;;6340425;22;19898;-79
2022/06/23 11:25:16;;;;;;;;;;;32.70;69.60;;;;;;6340831;22;19906;-79
2022/06/23 11:27:42;;;;;;;;;;;32.90;67.60;;;;;;6340943;22;20351;-80
2022/06/23 11:30:15;;;;;;;;;;;33.10;68.60;;;;;;6340714;22;19898;-80
2022/06/23 11:33:04;;;;;;;;;;;33.30;65.20;;;;;;6334054;22;20572;-79
2022/06/23 11:35:40;;;;;;;;;;;33.50;66.20;;;;;;6338912;22;20174;-77
2022/06/23 11:38:18;;;;;;;;;;;33.90;65.00;;;;;;6337904;22;19906;-77
2022/06/23 11:40:45;;;;;;;;;;;34.30;65.30;;;;;;6338875;22;19906;-77
2022/06/23 11:43:23;;;;;;;;;;;34.60;64.80;;;;;;6339043;22;19929;-77
2022/06/23 11:45:48;;;;;;;;;;;34.90;63.50;;;;;;6311467;22;19899;-77
2022/06/23 11:48:27;;;;;;;;;;;35.20;61.00;;;;;;6339645;22;19905;-77
2022/06/23 11:51:09;;;;;;;;;;;35.10;61.80;;;;;;6338882;22;19914;-78
2022/06/23 11:53:51;;;;;;;;;;;34.90;61.20;;;;;;6338534;22;19906;-78
2022/06/23 11:56:16;;;;;;;;;;;34.90;61.80;;;;;;6337585;22;19898;-77
2022/06/23 11:58:51;;;;;;;;;;;35.10;61.40;;;;;;6338972;22;19948;-77
2022/06/23 12:01:17;;;;;;;;;;;35.00;59.80;;;;;;6339905;22;19902;-78
2022/06/23 12:03:50;;;;;;;;;;;35.00;60.60;;;;;;6339933;22;19909;-78
2022/06/23 12:06:22;;;;;;;;;;;35.20;59.90;;;;;;6339783;22;19898;-78
2022/06/23 12:08:58;;;;;;;;;;;35.20;60.90;;;;;;6312500;22;19899;-81
2022/06/23 12:11:25;;;;;;;;;;;35.50;60.00;;;;;;6339802;22;19899;-79
2022/06/23 12:13:51;;;;;;;;;;;35.70;59.90;;;;;;6340214;22;20284;-80
2022/06/23 12:16:17;;;;;;;;;;;35.90;59.60;;;;;;6312123;22;19898;-80
2022/06/23 12:18:52;;;;;;;;;;;35.90;57.90;;;;;;6339468;22;20323;-79
2022/06/23 12:21:18;;;;;;;;;;;36.20;59.00;;;;;;6339819;22;19925;-77
2022/06/23 12:23:52;;;;;;;;;;;36.40;58.40;;;;;;6339330;22;19905;-77
2022/06/23 12:26:32;;;;;;;;;;;36.60;57.30;;;;;;6340361;22;19947;-77
2022/06/23 12:29:00;;;;;;;;;;;36.80;57.00;;;;;;6340369;22;20252;-77
2022/06/23 12:31:26;;;;;;;;;;;36.90;56.10;;;;;;6337963;22;19898;-78
2022/06/23 12:34:01;;;;;;;;;;;37.10;54.50;;;;;;6312346;22;19930;-76
2022/06/23 12:36:33;;;;;;;;;;;37.10;55.90;;;;;;6339675;22;19898;-78
2022/06/23 12:39:21;;;;;;;;;;;36.90;55.00;;;;;;6339733;22;20308;-77
2022/06/23 12:41:54;;;;;;;;;;;36.90;56.50;;;;;;6311380;22;19910;-77
2022/06/23 12:44:29;;;;;;;;;;;37.00;56.90;;;;;;6339803;22;19947;-77
2022/06/23 12:47:17;;;;;;;;;;;37.10;54.30;;;;;;6340243;22;19902;-77
2022/06/23 12:49:46;;;;;;;;;;;37.00;54.80;;;;;;6340110;22;19991;-75
2022/06/23 12:52:11;;;;;;;;;;;37.10;55.00;;;;;;6339352;22;20182;-77
2022/06/23 12:54:43;;;;;;;;;;;37.20;54.00;;;;;;6312138;22;19926;-78
2022/06/23 12:57:08;;;;;;;;;;;37.20;53.80;;;;;;6339874;22;19898;-77
2022/06/23 12:59:56;;;;;;;;;;;37.20;53.60;;;;;;6312160;22;19906;-77
2022/06/23 13:02:31;;;;;;;;;;;37.10;54.30;;;;;;6339388;22;19898;-80
2022/06/23 13:05:02;;;;;;;;;;;37.20;53.50;;;;;;6340179;22;19898;-80
2022/06/23 13:07:40;;;;;;;;;;;37.20;52.50;;;;;;6340049;22;19899;-79
2022/06/23 13:10:16;;;;;;;;;;;37.30;53.20;;;;;;6340130;22;19898;-79
2022/06/23 13:12:49;;;;;;;;;;;37.20;52.10;;;;;;6340130;22;20236;-81
2022/06/23 13:15:15;;;;;;;;;;;37.10;52.70;;;;;;6339907;22;19984;-79
2022/06/23 13:18:01;;;;;;;;;;;36.90;53.40;;;;;;6312155;22;19956;-78
2022/06/23 13:20:42;;;;;;;;;;;36.80;53.80;;;;;;6312229;22;20339;-78
2022/06/23 13:23:28;;;;;;;;;;;36.70;52.40;;;;;;6339734;22;20316;-79
2022/06/23 13:26:01;;;;;;;;;;;36.70;52.00;;;;;;6339285;22;19898;-79
2022/06/23 13:28:29;;;;;;;;;;;36.70;52.60;;;;;;6339807;22;19899;-79
2022/06/23 13:30:56;;;;;;;;;;;36.80;53.00;;;;;;6339022;22;19903;-79
2022/06/23 13:33:25;;;;;;;;;;;36.80;52.20;;;;;;6338532;22;19984;-76
2022/06/23 13:35:58;;;;;;;;;;;36.70;52.50;;;;;;6337832;22;19933;-75
2022/06/23 13:38:24;;;;;;;;;;;36.50;51.80;;;;;;6337519;22;19902;-79
2022/06/23 13:40:58;;;;;;;;;;;36.50;52.30;;;;;;6334661;22;19909;-80
2022/06/23 13:43:30;;;;;;;;;;;36.40;52.20;;;;;;6310732;22;19898;-80
2022/06/23 13:46:05;;;;;;;;;;;36.30;52.00;;;;;;6334775;22;19906;-79
2022/06/23 13:48:48;;;;;;;;;;;36.20;52.50;;;;;;6337667;22;19906;-79
2022/06/23 13:51:26;;;;;;;;;;;36.10;53.50;;;;;;6337121;22;19924;-76
2022/06/23 13:53:59;;;;;;;;;;;35.90;53.30;;;;;;6337309;22;20213;-76
2022/06/23 13:56:34;;;;;;;;;;;35.70;53.60;;;;;;6337555;22;19903;-76
2022/06/23 13:59:03;;;;;;;;;;;35.50;54.50;;;;;;6339621;22;19902;-79
2022/06/23 14:01:54;;;;;;;;;;;35.40;55.60;;;;;;6339239;22;19952;-79
2022/06/23 14:04:21;;;;;;;;;;;35.20;55.10;;;;;;6315096;22;19905;-80
2022/06/23 14:06:56;;;;;;;;;;;35.10;55.00;;;;;;6339493;22;19898;-79
2022/06/23 14:09:25;;;;;;;;;;;35.00;55.50;;;;;;6338782;22;19910;-79
2022/06/23 14:11:57;;;;;;;;;;;34.90;55.90;;;;;;6338554;22;20313;-79
2022/06/23 14:14:25;;;;;;;;;;;34.60;56.50;;;;;;6338532;22;19898;-80
2022/06/23 14:16:53;;;;;;;;;;;34.30;56.80;;;;;;6339156;22;19898;-80
2022/06/23 14:19:25;;;;;;;;;;;34.30;56.70;;;;;;6338722;22;20293;-79
2022/06/23 14:21:56;;;;;;;;;;;34.30;57.20;;;;;;6338948;22;19898;-78
2022/06/23 14:24:40;;;;;;;;;;;34.20;57.50;;;;;;6337981;22;19899;-79
2022/06/23 14:27:13;;;;;;;;;;;34.10;57.60;;;;;;6330328;22;19991;-78
2022/06/23 14:29:48;;;;;;;;;;;34.00;57.60;;;;;;6310613;22;19946;-77
2022/06/23 14:32:13;;;;;;;;;;;34.00;57.60;;;;;;6335919;22;19944;-76
2022/06/23 14:34:43;;;;;;;;;;;33.90;57.90;;;;;;6337946;22;20301;-77
2022/06/23 14:37:09;;;;;;;;;;;33.90;58.10;;;;;;6336372;22;19905;-76
2022/06/23 14:39:42;;;;;;;;;;;33.80;58.60;;;;;;6339005;22;19914;-76
2022/06/23 14:42:28;;;;;;;;;;;33.80;58.40;;;;;;6338504;22;19921;-76
2022/06/23 14:45:07;;;;;;;;;;;33.70;58.70;;;;;;6336840;22;19899;-76
2022/06/23 14:47:52;;;;;;;;;;;33.70;58.30;;;;;;6337240;22;19922;-77
2022/06/23 14:50:18;;;;;;;;;;;33.40;59.70;;;;;;6338817;22;19965;-76
2022/06/23 14:52:49;;;;;;;;;;;33.40;59.70;;;;;;6339694;22;19964;-76
2022/06/23 14:55:31;;;;;;;;;;;33.30;60.10;;;;;;6339589;22;19910;-76
2022/06/23 14:58:08;;;;;;;;;;;33.10;62.00;;;;;;6339672;22;19899;-77